ASN logo
ASN Wikibase Occurrence # 220997
Last updated: 17 February 2019
This information is added by users of ASN. Neither ASN nor the Flight Safety Foundation are responsible for the completeness or correctness of this information. If you feel this information is incomplete or incorrect, you can submit corrected information.

Date:21-JAN-2019
Time:20:30 LT
Type:Silhouette image of generic PA46 model; specific model in this crash may look slightly different
Piper PA-46-310P Malibu
Owner/operator:Southern Aircraft Consultancy INC Trustee
Registration: N264DB
C/n / msn: 46-8408037
Fatalities:Fatalities: 2 / Occupants: 2
Other fatalities:0
Aircraft damage: Written off (damaged beyond repair)
Location:English Channel, N of Alderney -   United Kingdom
Phase: En route
Nature:Private
Departure airport:Nantes Atlantique Airport (NTE/LFRS)
Destination airport:Cardiff-Wales Airport (CWL/EGFF)
Narrative:
The piston-engined aircraft with two occupants was reported missing over the waters of the English Channel north of Alderney.

The plane was flying at 5,000 ft, then requested 2,300 ft to ATC. The plane lost contact while at 2,300ft and disappeared off radar near the Casquets lighthouse, 8 miles (13km) north-west of Alderney.The contact was lost after this last communication.
The flight was conducted under visual flight rules (VFR, "V" in flight plan) which is unusual for a PA46 aircraft and what explains the low cruising altitude, also unusual for the pressurized, de-iced and turbocharged aircraft.

There are also reports that the Malibu was aborting it's take off three times before departing from Nantes.

Private research operations are still in progress in adverse weather conditions. Official research were stopped the 24-01-2019.

According to a statement/press release for the AAIB:

"On Monday night, a US-registered Piper PA-46-310P Malibu aircraft (registration N264DB) was lost from radar north of Guernsey. The aircraft was en route from Nantes, France to Cardiff, United Kingdom, with one pilot and one passenger on board.

In accordance with international protocols, the AAIB is investigating the loss of the aircraft. Since Tuesday morning, we have been working closely with international authorities including the US National Transportation Safety Board, the Bureau d’Enquêtes & d’Analyses (BEA) in France and the Junta de Investigación de Accidentes de Aviación Civil (JIACC) in Argentina.

We will be gathering all the available evidence to conduct a thorough investigation. However, if the aircraft is not found it is likely to limit the scope of the investigation."

At monday 28 january there were two cusions found near Surtainville on France's Cotentin Peninsula.

The 03-02-2019 the ship « FPV Morven » found the wreck of the aircraft ( 63 meters deep ). One body was found inside.

AAIB Update 3: 04-02-2019

Having identified a priority search area last week, the AAIB agreed a search strategy with Blue Water Recoveries Ltd to maximise the chance of locating the aircraft wreckage.

The AAIB commissioned specialist vessel Geo Ocean III and Blue Water Recoveries Ltd commissioned FPV Morven and the search area was divided between the vessels. Both vessels began their search on the morning of Sunday 3 February.

Early in the search, the Morven identified an object of interest on the seabed using its side-scan sonar equipment. It cleared the immediate area for the Geo Ocean III to use its underwater remotely operated vehicle (ROV) to survey the area of the seabed in which the object was located. Based on analysis of ROV video footage, the AAIB investigators on board the vessel concluded that the object is wreckage from the missing Piper Malibu aircraft, registration N264DB.

The ROV carried out a further search of the area overnight, but did not identify any additional pieces of wreckage.

Tragically, in video footage from the ROV, one occupant is visible amidst the wreckage. The AAIB is now considering the next steps, in consultation with the families of the pilot and passenger, and the police.

The image shows the rear left side of the fuselage including part of the aircraft registration.

We intend to publish an interim report within one month of the accident occurring.

07-02-2019 Dorset Police said: The body brought to Portland Port today has been formally identified by HM Coroner for Dorset as that of professional footballer Emiliano Sala.

Weather was reported at Jersey Airport by www.ogimet.com as:
SA21/01/2019 21:20->METAR EGJJ 212120Z AUTO 22015KT 9999 1400 FEW013///OVC028///07/05 Q1016 RERA=
SA21/01/2019 20:50->METAR EGJJ 212050Z AUTO 22015KT 9999 1200 R26/1200 BR SCT014///SCT018///BKN033///07/05 Q1016=
SA21/01/2019 20:20->METAR EGJJ 212020Z 22013KT 9999 R26/1400 SCT014 07/04 Q1017=

METAR/SPECI of LFRS, Nantes (France).

SA 21/01/2019 20:30->
METAR LFRS 212030Z AUTO 19003KT 5000 BR NSC M00/M02 Q1021
NOSIG=
SA 21/01/2019 20:00->
METAR LFRS 212000Z AUTO 18005KT 6000 NSC 00/M02 Q1021 NOSIG=
SA 21/01/2019 19:30->
METAR LFRS 211930Z AUTO 23004KT 8000 NSC 01/M01 Q1021 NOSIG=
SA 21/01/2019 19:00->
METAR LFRS 211900Z AUTO 25003KT CAVOK 01/M02 Q1022 NOSIG=
SA 21/01/2019 18:30->
METAR LFRS 211830Z AUTO 26003KT CAVOK 01/M01 Q1022 NOSIG=
SA 21/01/2019 18:00->
METAR LFRS 211800Z AUTO 25003KT CAVOK 02/M01 Q1022 NOSIG=
SA 21/01/2019 17:30->
METAR LFRS 211730Z AUTO 27004KT CAVOK 03/M01 Q1022 NOSIG=

Sources:

1. https://www.thesun.co.uk/news/8249696/plane-vanishes-alderney-channel-islands/
2. https://www.eagleradio.co.uk/news/uk-news/2787550/search-for-plane-missing-near-alderney-in-the-channel-islands/
3. https://www.bbc.com/news/world-europe-guernsey-46954922
4. https://www.msn.com/en-gb/news/uknews/search-for-plane-missing-near-alderney-in-the-channel-islands/ar-BBSz5RZ
5. https://www.gov.uk/government/news/aaib-investigation-into-the-loss-of-aircraft-n264db
6. https://penarthnews.wordpress.com/2019/01/23/cardiff-city-soccer-star-salas-35-year-old-plane-made-3-attempts-at-take-off/
7. https://www.grimsbytelegraph.co.uk/news/local-news/pilot-missing-footballer-sala-named-2460307
8. https://www.lequipe.fr/Football/Actualites/La-famille-d-emiliano-sala-relance-les-recherches/981829
9. https://penarthnews.wordpress.com/2019/01/23/cardiff-city-soccer-star-salas-35-year-old-plane-made-3-attempts-at-take-off/
10. https://www.bbc.co.uk/sport/football/47013474
11. https://www.ouest-france.fr/pays-de-la-loire/nantes-44000/disparition-de-sala-le-plan-de-vol-qui-demontre-que-les-mckay-n-ont-pas-tout-dit-6197738

Data____________________

https://registry.faa.gov/aircraftinquiry/NNum_Results.aspx?omni=Home-N-Number&nNumberTxt=N264DB
https://www.southernaircraft.co.uk/Home / https://beta.companieshouse.gov.uk/company/07284818 (the trustee company)
https://videos.dailymail.co.uk/video/mol/2019/01/23/6893781958609617924/1024x576_MP4_6893781958609617924.mp4
https://www.bbc.com/news/uk-wales-47058064

AAIB____________________

https://www.gov.uk/government/news/aaib-investigation-into-the-loss-of-aircraft-n264db


Images:




Photo of N264DB at Coventry, 2017 (by Alec Wilson; CC:by-sa)




Revision history:

Date/timeContributorUpdates
22-Jan-2019 02:50 Geno Added
22-Jan-2019 09:08 Iceman 29 Updated [Source, Embed code]
22-Jan-2019 09:13 Iceman 29 Updated [Embed code, Photo]
22-Jan-2019 09:18 Iceman 29 Updated [Time]
22-Jan-2019 09:35 Iceman 29 Updated [Embed code]
22-Jan-2019 11:38 Iceman 29 Updated [Nature, Embed code, Narrative]
22-Jan-2019 13:23 Iceman 29 Updated [Other fatalities, Embed code]
22-Jan-2019 17:13 Iceman 29 Updated [Embed code, Photo]
22-Jan-2019 17:28 RobertMB Updated [Aircraft type, Registration, Cn, Source, Embed code]
22-Jan-2019 19:26 Iceman 29 Updated [Operator, Total fatalities, Source]
22-Jan-2019 20:22 ckasmeridis Updated [Narrative]
22-Jan-2019 20:24 harro Updated [Total fatalities, Photo]
22-Jan-2019 20:24 harro Updated [Departure airport, Destination airport]
23-Jan-2019 06:39 Aerossurance Updated [Embed code, Narrative]
23-Jan-2019 06:46 Anon. Updated [Aircraft type, Registration, Cn, Operator]
23-Jan-2019 07:28 Iceman 29 Updated [Aircraft type, Registration, Cn, Operator, Source]
23-Jan-2019 08:57 Anon. Updated [Registration, Cn, Operator]
23-Jan-2019 08:57 harro Updated [Source]
23-Jan-2019 10:08 harro Updated [Registration, Cn, Operator, Source, Narrative]
23-Jan-2019 10:08 harro Updated [Source]
23-Jan-2019 12:54 harro Updated [Registration, Source, Narrative]
23-Jan-2019 15:13 RobertMB Updated [Source, Narrative]
23-Jan-2019 18:35 Dr. John Smith Updated [Source, Embed code, Narrative]
23-Jan-2019 20:30 Iceman 29 Updated [Embed code, Narrative]
24-Jan-2019 07:42 Iceman 29 Updated [Operator, Nature, Source]
24-Jan-2019 15:58 harro Updated [Total fatalities, Narrative]
24-Jan-2019 16:00 Iceman 29 Updated [Total fatalities, Source, Narrative, Photo]
24-Jan-2019 16:11 Iceman 29 Updated [Total fatalities]
26-Jan-2019 13:50 Iceman 29 Updated [Source, Narrative]
26-Jan-2019 15:08 Aerossurance Updated [Location, Source, Embed code]
26-Jan-2019 15:12 Aerossurance Updated [Source, Narrative]
26-Jan-2019 16:46 Aerossurance Updated [Narrative]
26-Jan-2019 17:21 Iceman 29 Updated [Source, Narrative]
27-Jan-2019 07:56 Iceman 29 Updated [Source, Photo]
28-Jan-2019 19:24 Anon. Updated [Narrative]
30-Jan-2019 15:42 RobertMB Updated [Source, Narrative]
03-Feb-2019 21:41 Iceman 29 Updated [Embed code, Narrative]
03-Feb-2019 21:42 Iceman 29 Updated [Embed code, Damage]
04-Feb-2019 07:10 Iceman 29 Updated [Photo]
04-Feb-2019 11:59 Iceman 29 Updated [Embed code, Narrative]
04-Feb-2019 12:00 Iceman 29 Updated [Embed code]
04-Feb-2019 13:35 Iceman 29 Updated [Embed code]
04-Feb-2019 13:39 Iceman 29 Updated [Source, Embed code, Narrative]
04-Feb-2019 13:41 Iceman 29 Updated [Narrative]
08-Feb-2019 00:18 Iceman 29 Updated [Embed code]
08-Feb-2019 00:21 Iceman 29 Updated [Embed code, Narrative]

Corrections or additions? ... Edit this accident description